Time;durP1;ratioP1;P1;durP2;ratioP2;P2;SDS_P1;SDS_P2;PMS_P1;PMS_P2;Temp;Humidity;BMP_temperature;BMP_pressure;BME280_temperature;BME280_humidity;BME280_pressure;Samples;Min_cycle;Max_cycle;Signal;HPM_P1;HPM_P2
2023/02/25 00:00:21;;;;;;;128.77;27.63;;;5.10;99.90;;;3.97;100.00;96203.81;5029337;28;20440;-70
2023/02/25 00:02:49;;;;;;;122.53;30.48;;;5.20;99.90;;;4.05;100.00;96208.66;5029612;28;20436;-70
2023/02/25 00:05:16;;;;;;;106.60;26.00;;;5.20;99.90;;;3.96;100.00;96214.53;5029727;28;20415;-70
2023/02/25 00:07:44;;;;;;;126.43;28.53;;;5.10;99.90;;;4.04;100.00;96208.88;5029660;28;20404;-70
2023/02/25 00:10:13;;;;;;;130.93;28.77;;;5.20;99.90;;;4.02;100.00;96197.84;5028187;28;20454;-71
2023/02/25 00:12:40;;;;;;;132.27;30.07;;;5.20;99.90;;;4.01;100.00;96204.13;5011659;28;20456;-70
2023/02/25 00:15:07;;;;;;;140.25;29.08;;;5.20;99.90;;;3.92;100.00;96206.34;5028559;28;20408;-70
2023/02/25 00:17:33;;;;;;;127.87;29.83;;;5.10;99.90;;;3.89;100.00;96212.84;5029529;28;20426;-70
2023/02/25 00:19:59;;;;;;;114.30;27.60;;;5.10;99.90;;;3.83;100.00;96211.16;5026932;28;20402;-70
2023/02/25 00:22:27;;;;;;;138.88;31.50;;;5.00;99.90;;;3.90;100.00;96208.41;5041659;23;20439;-72
2023/02/25 00:24:54;;;;;;;131.43;29.77;;;5.10;99.90;;;3.84;100.00;96198.88;5029548;28;20403;-72
2023/02/25 00:27:22;;;;;;;132.38;30.00;;;5.10;99.90;;;3.92;100.00;96203.72;5026886;28;20445;-72
2023/02/25 00:29:51;;;;;;;135.40;31.98;;;5.10;99.90;;;3.92;100.00;96195.06;5029318;28;20868;-72
2023/02/25 00:32:16;;;;;;;132.68;30.73;;;5.00;99.90;;;3.81;100.00;96196.75;5028969;28;20427;-72
2023/02/25 00:34:42;;;;;;;143.50;32.20;;;5.00;99.90;;;3.76;100.00;96194.06;5029509;28;20407;-72
2023/02/25 00:37:08;;;;;;;126.37;30.77;;;4.90;99.90;;;3.73;100.00;96205.78;5028067;28;20427;-72
2023/02/25 00:39:43;;;;;;;156.23;30.42;;;4.90;99.90;;;3.71;100.00;96210.44;5029383;28;20399;-72
2023/02/25 00:42:13;;;;;;;145.55;33.72;;;4.90;99.90;;;3.78;100.00;96215.53;5027366;28;25148;-72
2023/02/25 00:44:41;;;;;;;148.30;31.77;;;4.90;99.90;;;3.71;100.00;96220.13;5029269;28;20913;-72
2023/02/25 00:47:07;;;;;;;138.65;29.50;;;4.90;99.90;;;3.65;100.00;96215.84;5029369;28;20840;-72
2023/02/25 00:49:34;;;;;;;140.10;28.35;;;4.90;99.90;;;3.67;100.00;96209.34;5029250;28;20419;-72
2023/02/25 00:52:00;;;;;;;155.20;29.90;;;4.90;99.90;;;3.74;100.00;96198.72;5028850;28;20402;-72
2023/02/25 00:54:26;;;;;;;138.57;29.42;;;5.00;99.90;;;3.79;100.00;96196.19;5029216;28;20403;-72
2023/02/25 00:56:52;;;;;;;139.82;30.70;;;5.00;99.90;;;3.85;100.00;96206.50;5029178;28;20414;-72
2023/02/25 00:59:20;;;;;;;142.48;31.50;;;5.10;99.90;;;3.88;100.00;96213.88;5029215;28;20427;-72
2023/02/25 01:01:46;;;;;;;123.13;30.10;;;5.10;99.90;;;3.83;100.00;96211.16;5028838;28;20434;-72
2023/02/25 01:04:12;;;;;;;104.63;27.23;;;5.00;99.90;;;3.84;100.00;96214.56;5029165;28;20399;-70
2023/02/25 01:06:38;;;;;;;147.90;30.42;;;5.00;99.90;;;3.81;100.00;96223.72;5029058;28;20399;-71
2023/02/25 01:09:12;;;;;;;125.97;29.90;;;5.10;99.90;;;3.82;100.00;96224.50;5028998;28;20441;-71
2023/02/25 01:11:41;;;;;;;124.15;29.23;;;5.00;99.90;;;3.85;100.00;96227.44;5029048;28;20439;-71
2023/02/25 01:14:10;;;;;;;105.77;26.13;;;5.00;99.90;;;3.85;100.00;96227.44;5032718;28;20393;-71
2023/02/25 01:16:38;;;;;;;111.80;26.30;;;5.10;99.90;;;3.82;100.00;96220.06;5031365;28;20812;-71
2023/02/25 01:19:07;;;;;;;105.13;25.95;;;5.00;99.90;;;3.88;100.00;96223.56;5032714;28;20964;-71
2023/02/25 01:21:37;;;;;;;123.75;26.85;;;5.10;99.90;;;3.96;100.00;96231.03;5032070;28;20447;-71
2023/02/25 01:24:06;;;;;;;111.88;26.30;;;5.20;99.90;;;3.93;100.00;96235.94;5030065;28;20424;-71
2023/02/25 01:26:37;;;;;;;108.32;27.08;;;5.10;99.90;;;3.98;100.00;96223.72;5032494;28;20785;-71
2023/02/25 01:29:06;;;;;;;106.32;25.55;;;5.20;99.90;;;3.93;100.00;96230.69;5029913;28;20842;-71
2023/02/25 01:31:32;;;;;;;108.05;26.58;;;5.10;99.90;;;3.95;100.00;96239.09;5032057;28;20442;-71
2023/02/25 01:34:02;;;;;;;116.40;26.43;;;5.20;99.90;;;3.94;100.00;96250.59;5032251;28;20415;-71
2023/02/25 01:36:30;;;;;;;98.13;24.52;;;5.10;99.90;;;3.91;100.00;96251.09;5032353;28;20521;-71
2023/02/25 01:38:56;;;;;;;104.03;26.20;;;5.10;99.90;;;3.90;100.00;96263.38;5032277;28;20399;-71
2023/02/25 01:41:23;;;;;;;88.55;22.80;;;5.10;99.90;;;3.87;100.00;96267.25;5029365;28;20400;-71
2023/02/25 01:44:08;;;;;;;92.30;21.45;;;5.10;99.90;;;3.81;100.00;96272.66;5032223;28;20411;-71
2023/02/25 01:46:35;;;;;;;63.13;18.83;;;5.00;99.90;;;3.85;100.00;96260.66;5031290;28;20483;-71
2023/02/25 01:49:08;;;;;;;73.18;19.40;;;4.90;99.90;;;3.86;100.00;96254.41;5032050;28;20764;-71
2023/02/25 01:51:36;;;;;;;76.33;18.93;;;5.00;99.90;;;3.80;100.00;96263.19;5031839;28;20455;-72
2023/02/25 01:54:06;;;;;;;78.68;19.00;;;5.00;99.90;;;3.75;100.00;96240.38;5032009;28;20433;-71
2023/02/25 01:56:34;;;;;;;67.28;18.55;;;4.90;99.90;;;3.77;100.00;96237.50;5032022;28;20979;-71
2023/02/25 01:59:01;;;;;;;91.20;19.58;;;5.00;99.90;;;3.70;100.00;96229.78;5047127;28;20420;-71
2023/02/25 02:01:32;;;;;;;68.15;17.42;;;5.00;99.90;;;3.72;100.00;96240.03;5031590;28;20504;-71
2023/02/25 02:04:03;;;;;;;79.88;18.67;;;4.90;99.90;;;3.73;100.00;96229.34;5031704;28;20430;-71
2023/02/25 02:06:34;;;;;;;68.43;16.98;;;4.90;99.90;;;3.66;100.00;96235.75;5031828;28;20840;-71
2023/02/25 02:09:05;;;;;;;76.22;19.10;;;4.90;99.90;;;3.70;100.00;96255.97;5031701;28;20850;-71
2023/02/25 02:11:31;;;;;;;78.55;17.48;;;4.90;99.90;;;3.67;100.00;96253.03;5031415;28;20419;-71
2023/02/25 02:13:58;;;;;;;71.13;17.50;;;4.90;99.90;;;3.69;100.00;96245.72;5031617;28;20938;-71
2023/02/25 02:16:40;;;;;;;69.15;19.08;;;4.90;99.90;;;3.63;100.00;96247.47;5029252;28;20792;-71
2023/02/25 02:19:26;;;;;;;64.05;18.30;;;4.80;99.90;;;3.48;100.00;96252.41;5029277;28;20425;-71
2023/02/25 02:22:05;;;;;;;74.35;19.02;;;4.60;99.90;;;3.42;100.00;96245.50;5029670;28;20511;-71
2023/02/25 02:25:08;;;;;;;70.65;17.85;;;4.60;99.90;;;3.41;100.00;96242.09;5029272;28;20446;-71
2023/02/25 02:28:03;;;;;;;72.45;18.65;;;4.60;99.90;;;3.45;100.00;96253.69;5015866;28;20422;-72
2023/02/25 02:30:46;;;;;;;76.35;19.73;;;4.60;99.90;;;3.37;100.00;96267.16;5029569;28;20507;-72
2023/02/25 02:33:25;;;;;;;85.07;20.00;;;4.60;99.90;;;3.39;100.00;96265.06;5029473;28;20400;-72
2023/02/25 02:36:00;;;;;;;80.07;18.97;;;4.60;99.90;;;3.35;100.00;96265.78;5029666;28;20441;-72
2023/02/25 02:38:34;;;;;;;71.95;19.73;;;4.50;99.90;;;3.33;100.00;96271.22;5029030;28;20454;-72
2023/02/25 02:41:08;;;;;;;66.93;18.70;;;4.50;99.90;;;3.35;100.00;96261.34;5031007;28;20890;-72
2023/02/25 02:43:40;;;;;;;75.90;19.05;;;4.50;99.90;;;3.31;100.00;96254.97;5030282;28;22417;-72
2023/02/25 02:46:16;;;;;;;71.93;18.48;;;4.50;99.90;;;3.27;100.00;96266.94;5028918;28;20429;-72
2023/02/25 02:48:51;;;;;;;65.38;18.42;;;4.50;99.90;;;3.28;100.00;96267.72;5030875;28;20470;-72
2023/02/25 02:51:25;;;;;;;74.05;18.40;;;4.50;99.90;;;3.33;100.00;96265.22;5029442;28;20408;-72
2023/02/25 02:53:54;;;;;;;76.75;19.02;;;4.50;99.90;;;3.36;100.00;96265.56;5028022;28;20447;-72
2023/02/25 02:56:24;;;;;;;67.38;18.55;;;4.60;99.90;;;3.42;100.00;96269.84;5030853;28;20421;-71
2023/02/25 02:58:56;;;;;;;76.80;19.10;;;4.60;99.90;;;3.40;100.00;96268.47;5030675;28;20464;-72
2023/02/25 03:01:27;;;;;;;71.67;19.17;;;4.60;99.90;;;3.34;100.00;96261.56;5030646;28;20541;-72
2023/02/25 03:04:01;;;;;;;72.88;17.40;;;4.50;99.90;;;3.36;100.00;96260.31;5030656;28;20887;-72
2023/02/25 03:06:33;;;;;;;70.17;19.10;;;4.60;99.90;;;3.44;100.00;96262.56;5030760;28;20454;-71
2023/02/25 03:09:13;;;;;;;70.30;18.50;;;4.70;99.90;;;3.43;100.00;96274.06;5030503;28;20769;-72
2023/02/25 03:11:40;;;;;;;69.65;17.98;;;4.70;99.90;;;3.51;100.00;96275.50;5030110;28;20412;-71
2023/02/25 03:14:07;;;;;;;70.93;18.00;;;4.70;99.90;;;3.52;100.00;96277.09;5030553;28;20407;-71
2023/02/25 03:16:39;;;;;;;68.13;17.75;;;4.70;99.90;;;3.43;100.00;96287.13;5030369;28;20799;-71
2023/02/25 03:19:12;;;;;;;61.30;15.90;;;4.70;99.90;;;3.48;100.00;96281.19;5028000;28;20454;-71
2023/02/25 03:21:42;;;;;;;65.90;17.38;;;4.70;99.90;;;3.47;100.00;96279.59;5029901;28;20449;-71
2023/02/25 03:24:15;;;;;;;61.53;16.30;;;4.70;99.90;;;3.51;100.00;96285.97;5028258;28;20405;-71
2023/02/25 03:26:41;;;;;;;57.47;14.60;;;4.70;99.90;;;3.49;100.00;96288.81;5030270;28;20506;-70
2023/02/25 03:29:15;;;;;;;56.70;15.25;;;4.70;99.90;;;3.53;100.00;96293.59;5030185;28;20448;-70
2023/02/25 03:31:47;;;;;;;53.00;15.45;;;4.70;99.90;;;3.50;100.00;96293.03;5029841;28;20504;-70
2023/02/25 03:34:20;;;;;;;53.58;15.15;;;4.70;99.90;;;3.51;100.00;96291.19;5030276;28;20403;-71
2023/02/25 03:36:52;;;;;;;50.65;13.80;;;4.70;99.90;;;3.38;100.00;96297.47;5026976;28;20924;-70
2023/02/25 03:39:26;;;;;;;43.13;13.18;;;4.60;99.90;;;3.27;100.00;96285.25;5030231;28;20441;-70
2023/02/25 03:41:56;;;;;;;46.33;12.52;;;4.40;99.90;;;3.18;100.00;96289.25;5028139;28;20904;-71
2023/02/25 03:44:28;;;;;;;35.75;10.82;;;4.40;99.90;;;3.18;100.00;96297.09;5030016;28;20422;-71
2023/02/25 03:46:56;;;;;;;44.83;11.07;;;4.40;99.90;;;3.15;100.00;96294.94;5029919;28;20454;-71
2023/02/25 03:49:32;;;;;;;42.78;11.55;;;4.40;99.90;;;3.17;100.00;96298.09;5029811;28;21047;-71
2023/02/25 03:52:00;;;;;;;40.93;10.67;;;4.40;99.90;;;3.18;100.00;96294.47;5029543;28;20560;-70
2023/02/25 03:54:26;;;;;;;37.55;10.15;;;4.40;99.90;;;3.19;100.00;96300.50;5027417;28;20512;-70
2023/02/25 03:56:52;;;;;;;32.22;9.30;;;4.40;99.90;;;3.19;100.00;96303.13;5029866;28;20545;-70
2023/02/25 03:59:18;;;;;;;29.37;9.40;;;4.40;99.90;;;3.10;100.00;96307.91;5029839;28;20943;-70
2023/02/25 04:01:48;;;;;;;31.90;9.57;;;4.20;99.90;;;3.06;100.00;96309.41;5029389;28;20496;-71
2023/02/25 04:04:14;;;;;;;38.07;9.90;;;4.30;99.90;;;3.07;100.00;96311.00;5029806;28;20896;-71
2023/02/25 04:06:41;;;;;;;32.10;9.02;;;4.20;99.90;;;3.08;100.00;96313.34;5029694;28;20444;-71
2023/02/25 04:09:07;;;;;;;34.90;9.23;;;4.30;99.90;;;3.11;100.00;96322.56;5029608;28;20444;-71
2023/02/25 04:11:34;;;;;;;31.45;9.10;;;4.30;99.90;;;3.10;100.00;96324.38;5029282;28;20769;-71
2023/02/25 04:14:00;;;;;;;38.90;10.38;;;4.30;99.90;;;3.13;100.00;96324.94;5029633;28;20400;-71
2023/02/25 04:16:25;;;;;;;28.02;8.27;;;4.30;99.90;;;3.11;100.00;96322.56;5029676;28;20827;-71
2023/02/25 04:18:51;;;;;;;30.03;8.90;;;4.30;99.90;;;3.15;100.00;96322.91;5029583;28;20446;-71
2023/02/25 04:21:27;;;;;;;28.80;8.63;;;4.30;99.90;;;3.12;100.00;96326.78;5029247;28;20435;-71
2023/02/25 04:23:54;;;;;;;34.65;9.07;;;4.30;99.90;;;3.15;100.00;96325.53;5027836;28;20439;-71
2023/02/25 04:26:20;;;;;;;28.13;8.88;;;4.30;99.90;;;3.13;100.00;96330.19;5029480;28;20409;-70
2023/02/25 04:28:46;;;;;;;23.83;8.48;;;4.30;99.90;;;3.12;100.00;96332.00;5029531;28;20754;-71
2023/02/25 04:31:12;;;;;;;33.73;9.50;;;4.40;99.90;;;3.12;100.00;96326.78;5029474;28;20993;-71
2023/02/25 04:33:38;;;;;;;32.20;9.77;;;4.40;99.90;;;3.08;100.00;96326.41;5029322;28;20495;-71
2023/02/25 04:36:05;;;;;;;33.63;9.30;;;4.30;99.90;;;2.96;100.00;96327.47;5029479;28;20395;-71
2023/02/25 04:38:31;;;;;;;30.77;9.00;;;4.10;99.90;;;2.91;100.00;96329.97;5029418;28;20629;-71
2023/02/25 04:40:58;;;;;;;32.08;9.02;;;4.10;99.90;;;2.92;100.00;96329.75;5029298;28;20987;-71
2023/02/25 04:43:24;;;;;;;27.70;8.38;;;4.10;99.90;;;2.98;100.00;96330.66;5029076;28;20398;-71
2023/02/25 04:45:52;;;;;;;29.65;8.90;;;4.20;99.90;;;2.99;100.00;96330.44;5029320;28;20407;-70
2023/02/25 04:48:23;;;;;;;30.15;8.50;;;4.20;99.90;;;2.97;100.00;96329.06;5032230;28;20472;-73
2023/02/25 04:50:49;;;;;;;28.38;8.00;;;4.20;99.90;;;3.03;100.00;96325.53;5030774;28;20398;-72
2023/02/25 04:53:14;;;;;;;26.73;7.78;;;4.30;99.90;;;2.97;100.00;96323.84;5032833;28;20418;-71
2023/02/25 04:55:40;;;;;;;28.10;8.17;;;4.20;99.90;;;2.86;100.00;96340.31;5033140;28;20418;-73
2023/02/25 04:58:07;;;;;;;31.70;8.50;;;4.20;99.90;;;2.91;100.00;96333.38;5030339;28;20457;-71
2023/02/25 05:00:33;;;;;;;30.38;8.40;;;4.10;99.90;;;2.95;100.00;96336.31;5032803;28;20892;-71
2023/02/25 05:02:59;;;;;;;34.35;7.85;;;4.10;99.90;;;2.92;100.00;96329.75;5032623;28;20403;-71
2023/02/25 05:05:25;;;;;;;25.05;7.25;;;4.20;99.90;;;2.87;100.00;96342.69;5032853;28;20410;-72
2023/02/25 05:07:51;;;;;;;28.58;7.50;;;4.10;99.90;;;2.91;100.00;96341.22;5032756;28;20414;-71
2023/02/25 05:10:17;;;;;;;22.13;7.28;;;4.10;99.90;;;2.85;100.00;96339.53;5031451;28;20451;-71
2023/02/25 05:12:43;;;;;;;16.83;6.35;;;4.10;99.90;;;2.84;100.00;96337.94;5032389;28;20407;-71
2023/02/25 05:15:11;;;;;;;23.75;6.13;;;4.00;99.90;;;2.71;100.00;96336.31;5048081;28;20492;-71
2023/02/25 05:17:37;;;;;;;21.45;6.13;;;4.00;99.90;;;2.66;100.00;96338.84;5032709;28;20459;-71
2023/02/25 05:20:10;;;;;;;22.50;6.87;;;3.90;99.90;;;2.66;100.00;96343.25;5032592;28;20825;-71
2023/02/25 05:22:37;;;;;;;22.85;6.88;;;3.90;99.90;;;2.65;100.00;96333.81;5032218;28;20439;-71
2023/02/25 05:25:04;;;;;;;23.98;6.60;;;3.90;99.90;;;2.65;100.00;96341.66;5032574;28;20403;-71
2023/02/25 05:27:30;;;;;;;18.70;5.53;;;3.90;99.90;;;2.64;100.00;96343.47;5032634;28;20410;-71
2023/02/25 05:29:56;;;;;;;24.63;5.85;;;3.90;99.90;;;2.69;100.00;96334.97;5032486;28;20450;-71
2023/02/25 05:32:23;;;;;;;13.77;5.33;;;3.90;99.90;;;2.67;100.00;96337.81;5032373;28;20450;-71
2023/02/25 05:34:49;;;;;;;20.92;5.15;;;3.90;99.90;;;2.69;100.00;96334.97;5032388;28;20527;-70
2023/02/25 05:37:15;;;;;;;18.73;5.13;;;3.80;99.90;;;2.69;100.00;96334.97;5032351;28;20873;-71
2023/02/25 05:39:41;;;;;;;15.25;4.82;;;3.90;99.90;;;2.68;100.00;96342.03;5032331;28;20406;-72
2023/02/25 05:42:07;;;;;;;17.60;5.28;;;3.90;99.90;;;2.68;100.00;96341.22;5032045;28;20502;-71
2023/02/25 05:44:33;;;;;;;19.13;5.68;;;3.90;99.90;;;2.67;100.00;96344.84;5032163;28;20521;-72
2023/02/25 05:46:59;;;;;;;24.15;4.95;;;3.90;99.90;;;2.62;100.00;96342.13;5032196;28;20403;-72
2023/02/25 05:49:26;;;;;;;16.17;4.78;;;3.80;99.90;;;2.52;100.00;96344.50;5032026;28;20966;-71
2023/02/25 05:51:52;;;;;;;16.63;4.75;;;3.70;99.90;;;2.54;100.00;96343.25;5031725;28;20410;-71
2023/02/25 05:54:18;;;;;;;17.98;4.53;;;3.70;99.90;;;2.48;100.00;96345.97;5031978;28;20776;-71
2023/02/25 05:56:44;;;;;;;18.67;4.33;;;3.70;99.90;;;2.41;100.00;96350.50;5031463;28;20403;-72
2023/02/25 05:59:10;;;;;;;12.98;4.10;;;3.60;99.90;;;2.42;100.00;96352.09;5030947;28;20399;-71
2023/02/25 06:01:36;;;;;;;16.58;5.13;;;3.60;99.90;;;2.49;100.00;96356.19;5031434;28;20403;-72
2023/02/25 06:04:02;;;;;;;15.95;4.50;;;3.70;99.90;;;2.48;100.00;96353.81;5031926;28;20407;-72
2023/02/25 06:06:30;;;;;;;15.93;4.43;;;3.70;99.90;;;2.49;100.00;96348.34;5029245;28;20950;-72
2023/02/25 06:08:57;;;;;;;13.80;3.92;;;3.70;99.90;;;2.51;100.00;96348.13;5031661;28;20411;-72
2023/02/25 06:11:26;;;;;;;21.63;4.43;;;3.70;99.90;;;2.51;100.00;96348.94;5031368;28;20824;-72
2023/02/25 06:13:54;;;;;;;20.55;4.80;;;3.70;99.90;;;2.49;100.00;96358.00;5031654;28;20434;-72
2023/02/25 06:16:21;;;;;;;21.85;4.93;;;3.70;99.90;;;2.42;100.00;96365.94;5031695;28;20566;-72
2023/02/25 06:18:50;;;;;;;10.70;4.80;;;3.60;99.90;;;2.41;100.00;96359.13;5031499;28;20403;-72
2023/02/25 06:21:16;;;;;;;25.85;6.20;;;3.60;99.90;;;2.41;100.00;96376.59;5010166;22;1741912;-70
2023/02/25 06:23:44;;;;;;;19.52;4.75;;;3.60;99.90;;;2.36;100.00;96368.66;5029852;28;20493;-70
2023/02/25 06:26:13;;;;;;;17.30;5.05;;;3.60;99.90;;;2.36;100.00;96379.91;5028928;28;20425;-70
2023/02/25 06:28:39;;;;;;;18.23;5.28;;;3.50;99.90;;;2.36;100.00;96376.50;5031371;28;20460;-70
2023/02/25 06:31:07;;;;;;;17.80;5.07;;;3.50;99.90;;;2.39;100.00;96379.47;5031161;28;20688;-70
2023/02/25 06:33:33;;;;;;;19.73;5.10;;;3.60;99.90;;;2.44;100.00;96387.41;5031043;28;20457;-70
2023/02/25 06:35:59;;;;;;;22.87;5.80;;;3.60;99.90;;;2.50;100.00;96391.72;5031192;28;20465;-70
2023/02/25 06:38:25;;;;;;;18.17;5.35;;;3.70;99.90;;;2.46;100.00;96384.59;5031093;28;20407;-70
2023/02/25 06:40:53;;;;;;;24.35;5.10;;;3.60;99.90;;;2.44;100.00;96376.16;5031227;28;20486;-70
2023/02/25 06:43:19;;;;;;;24.17;5.28;;;3.60;99.90;;;2.37;100.00;96383.31;5030828;28;20407;-70
2023/02/25 06:45:44;;;;;;;17.95;4.68;;;3.50;99.90;;;2.36;100.00;96387.72;5046381;28;20469;-70
2023/02/25 06:48:10;;;;;;;18.60;5.20;;;3.50;99.90;;;2.42;100.00;96391.25;5030902;28;20419;-70
2023/02/25 06:50:38;;;;;;;18.38;4.93;;;3.60;99.90;;;2.42;100.00;96388.66;5030915;28;20407;-70
2023/02/25 06:53:04;;;;;;;20.43;5.30;;;3.60;99.90;;;2.40;100.00;96381.06;5030583;28;20448;-69
2023/02/25 06:55:30;;;;;;;15.63;5.07;;;3.60;99.90;;;2.41;100.00;96384.44;5030826;28;20912;-70
2023/02/25 06:57:57;;;;;;;20.37;5.07;;;3.60;99.90;;;2.48;100.00;96379.94;5030831;28;20545;-70
2023/02/25 07:00:23;;;;;;;14.63;5.18;;;3.70;99.90;;;2.49;100.00;96387.53;5030743;28;20734;-70
2023/02/25 07:02:49;;;;;;;24.88;5.35;;;3.60;99.90;;;2.51;100.00;96388.09;5027622;28;20449;-70
2023/02/25 07:05:16;;;;;;;19.55;5.57;;;3.70;99.90;;;2.50;100.00;96396.16;5030655;28;20407;-70
2023/02/25 07:07:41;;;;;;;20.75;5.65;;;3.60;99.90;;;2.35;100.00;96404.41;5030540;28;20414;-70
2023/02/25 07:10:10;;;;;;;19.75;5.60;;;3.50;99.90;;;2.32;100.00;96403.06;5045548;28;20518;-70
2023/02/25 07:12:36;;;;;;;12.48;4.65;;;3.50;99.90;;;2.37;100.00;96407.59;5030121;28;20549;-70
2023/02/25 07:15:05;;;;;;;17.08;5.20;;;3.50;99.90;;;2.51;100.00;96403.78;5030397;28;20469;-70
2023/02/25 07:17:31;;;;;;;19.27;5.07;;;3.70;99.90;;;2.55;100.00;96404.13;5026664;28;20524;-70
2023/02/25 07:19:57;;;;;;;18.33;4.70;;;3.70;99.90;;;2.66;100.00;96398.13;5030596;28;20398;-70
2023/02/25 07:22:23;;;;;;;18.83;5.10;;;3.80;99.90;;;2.60;100.00;96401.63;5029821;28;20404;-70
2023/02/25 07:24:50;;;;;;;17.13;4.60;;;3.80;99.90;;;2.46;100.00;96408.88;5030301;28;20411;-70
2023/02/25 07:27:15;;;;;;;22.63;4.53;;;3.60;99.90;;;2.46;100.00;96408.88;5030284;28;20403;-70
2023/02/25 07:29:41;;;;;;;9.68;4.03;;;3.60;99.90;;;2.53;100.00;96421.84;5030223;28;20534;-69
2023/02/25 07:32:09;;;;;;;19.27;4.60;;;3.70;99.90;;;2.57;100.00;96410.72;5029900;28;20402;-75
2023/02/25 07:34:35;;;;;;;17.48;4.72;;;3.70;99.90;;;2.73;100.00;96412.69;5029473;28;20403;-69
2023/02/25 07:37:01;;;;;;;18.52;4.38;;;3.90;99.90;;;2.78;100.00;96408.59;5045504;28;20449;-70
2023/02/25 07:39:27;;;;;;;19.13;4.50;;;3.90;99.90;;;2.78;100.00;96413.84;5027832;28;20973;-70
2023/02/25 07:41:53;;;;;;;11.02;4.25;;;4.00;99.90;;;2.84;100.00;96407.69;5028169;28;20426;-70
2023/02/25 07:44:19;;;;;;;14.10;4.03;;;4.00;99.90;;;2.77;100.00;96409.63;5029934;28;21409;-70
2023/02/25 07:46:45;;;;;;;15.37;4.07;;;3.90;99.90;;;2.82;100.00;96410.53;5029148;28;20554;-70
2023/02/25 07:49:12;;;;;;;15.00;4.10;;;4.00;99.90;;;2.95;100.00;96404.28;5029441;28;20422;-70
2023/02/25 07:51:38;;;;;;;13.67;4.03;;;4.10;99.90;;;2.98;100.00;96406.47;5028265;28;20413;-70
2023/02/25 07:54:04;;;;;;;14.10;3.65;;;4.20;99.90;;;3.07;100.00;96407.72;5028006;28;20410;-69
2023/02/25 07:56:30;;;;;;;15.95;4.40;;;4.20;99.90;;;3.21;100.00;96401.22;5029068;28;20812;-70
2023/02/25 07:58:56;;;;;;;13.70;3.80;;;4.30;99.90;;;2.92;100.00;96404.75;5027637;28;20935;-70
2023/02/25 08:01:26;;;;;;;13.55;3.60;;;4.20;99.90;;;3.08;100.00;96404.09;5026956;28;20419;-70
2023/02/25 08:03:54;;;;;;;14.65;3.45;;;4.20;99.90;;;3.21;100.00;96408.28;5028175;28;21003;-70
2023/02/25 08:06:22;;;;;;;11.77;3.83;;;4.40;99.90;;;3.33;100.00;96399.38;5029022;28;20454;-70
2023/02/25 08:08:50;;;;;;;12.60;3.70;;;4.40;99.90;;;3.31;100.00;96398.81;5045506;28;20470;-70
2023/02/25 08:11:18;;;;;;;13.32;3.95;;;4.50;99.90;;;3.37;100.00;96397.13;5030467;28;20446;-69
2023/02/25 08:13:44;;;;;;;10.23;3.88;;;4.50;99.90;;;3.34;100.00;96397.56;5028980;28;21061;-71
2023/02/25 08:16:13;;;;;;;17.48;3.90;;;4.40;99.90;;;3.32;100.00;96394.38;5028890;28;20927;-69
2023/02/25 08:18:42;;;;;;;10.18;3.65;;;4.50;99.90;;;3.48;100.00;96396.31;5030048;28;20448;-70
2023/02/25 08:21:12;;;;;;;10.98;3.72;;;4.60;99.90;;;3.61;100.00;96388.19;5030637;28;20432;-69
2023/02/25 08:23:39;;;;;;;12.98;3.72;;;4.70;99.90;;;3.30;100.00;96386.78;5049834;28;20951;-69
2023/02/25 08:26:08;;;;;;;13.32;4.10;;;4.40;99.90;;;3.52;100.00;96397.44;5035329;28;20752;-69
2023/02/25 08:28:34;;;;;;;11.35;4.07;;;4.60;99.90;;;3.75;100.00;96397.41;5032952;28;21035;-70
2023/02/25 08:31:00;;;;;;;14.38;4.20;;;4.80;99.90;;;3.81;100.00;96400.91;5036184;28;20489;-70
2023/02/25 08:33:29;;;;;;;11.73;3.80;;;4.90;99.90;;;3.98;100.00;96403.59;5035694;28;20410;-69
2023/02/25 08:36:04;;;;;;;10.85;3.40;;;5.00;99.90;;;3.96;100.00;96389.94;5033577;28;20482;-70
2023/02/25 08:38:30;;;;;;;17.27;3.95;;;5.00;99.90;;;4.00;100.00;96406.75;5034202;28;20555;-70
2023/02/25 08:40:59;;;;;;;13.93;3.95;;;5.20;99.90;;;4.04;100.00;96402.66;5035076;28;20522;-70
2023/02/25 08:43:25;;;;;;;10.18;3.33;;;5.10;99.90;;;4.28;100.00;96409.38;5049254;28;20415;-70
2023/02/25 08:45:51;;;;;;;13.20;3.88;;;5.20;99.90;;;4.13;100.00;96407.28;5033900;28;20424;-70
2023/02/25 08:48:17;;;;;;;14.88;3.28;;;5.20;99.90;;;4.16;100.00;96393.72;5034797;28;20414;-69
2023/02/25 08:50:43;;;;;;;10.68;3.67;;;5.30;99.90;;;4.31;100.00;96398.41;5033427;28;20435;-70
2023/02/25 08:53:09;;;;;;;12.18;3.80;;;5.40;99.90;;;4.41;100.00;96405.66;5033269;28;20403;-70
2023/02/25 08:55:35;;;;;;;11.77;4.00;;;5.40;99.90;;;4.22;100.00;96391.97;5033365;28;20773;-70
2023/02/25 08:58:02;;;;;;;11.45;4.00;;;5.30;99.90;;;4.24;100.00;96398.56;5033765;28;20959;-70
2023/02/25 09:00:28;;;;;;;13.65;4.00;;;5.30;99.90;;;4.36;100.00;96402.97;5049524;28;20833;-70
2023/02/25 09:02:54;;;;;;;9.00;3.63;;;5.30;99.90;;;4.27;100.00;96405.19;5034611;28;20472;-70
2023/02/25 09:05:20;;;;;;;12.00;3.50;;;5.30;99.90;;;4.46;100.00;96396.06;5036207;28;20405;-70
2023/02/25 09:07:46;;;;;;;13.43;4.50;;;5.50;99.90;;;4.66;100.00;96395.63;5032858;28;20453;-70
2023/02/25 09:10:12;;;;;;;10.87;3.70;;;5.60;99.90;;;4.45;100.00;96409.41;5032332;28;20434;-70
2023/02/25 09:12:39;;;;;;;8.13;3.78;;;5.60;99.90;;;4.56;100.00;96400.69;5031873;28;20402;-69
2023/02/25 09:15:09;;;;;;;8.80;3.65;;;5.60;99.90;;;4.38;100.00;96399.06;5032346;28;20411;-69
2023/02/25 09:17:35;;;;;;;17.67;3.80;;;5.60;99.90;;;4.46;100.00;96401.31;5032109;28;20403;-71
2023/02/25 09:20:05;;;;;;;8.85;3.15;;;5.60;99.90;;;4.36;100.00;96405.59;5052839;28;20784;-71
2023/02/25 09:22:32;;;;;;;9.00;3.58;;;5.40;99.90;;;4.20;100.00;96397.47;5032441;28;20442;-69
2023/02/25 09:24:58;;;;;;;8.87;3.10;;;5.30;99.90;;;4.17;100.00;96405.78;5033924;28;20482;-69
2023/02/25 09:27:24;;;;;;;11.48;3.20;;;5.20;99.90;;;4.06;100.00;96398.75;5031420;28;20422;-72
2023/02/25 09:29:50;;;;;;;9.57;3.28;;;5.20;99.90;;;4.04;100.00;96394.78;5030104;28;20429;-71
2023/02/25 09:32:20;;;;;;;9.90;2.80;;;5.20;99.90;;;4.16;100.00;96404.19;5030702;28;20896;-71
2023/02/25 09:34:50;;;;;;;7.20;2.53;;;5.30;99.90;;;4.37;100.00;96387.00;5029544;28;20452;-71
2023/02/25 09:37:18;;;;;;;6.75;2.50;;;5.40;99.90;;;4.50;100.00;96386.72;5030507;28;20866;-71
2023/02/25 09:39:44;;;;;;;7.47;2.08;;;5.50;99.90;;;4.63;100.00;96393.47;5029126;28;20402;-70
2023/02/25 09:42:17;;;;;;;3.30;1.65;;;5.60;99.90;;;4.85;100.00;96380.44;5030347;28;20404;-69
2023/02/25 09:44:48;;;;;;;7.88;1.75;;;5.80;99.90;;;5.09;100.00;96387.09;5030647;28;20439;-69
2023/02/25 09:47:20;;;;;;;9.23;2.60;;;6.00;99.90;;;5.05;100.00;96378.13;5031084;28;20398;-69
2023/02/25 09:49:50;;;;;;;3.55;1.70;;;6.10;99.90;;;5.26;100.00;96377.34;5032174;28;20499;-70
2023/02/25 09:52:23;;;;;;;3.53;1.80;;;6.30;99.90;;;5.40;100.00;96383.09;5032086;28;20459;-70
2023/02/25 09:54:55;;;;;;;4.75;1.58;;;6.40;99.90;;;5.74;100.00;96381.94;5032541;28;20403;-70
2023/02/25 09:57:22;;;;;;;2.85;1.55;;;6.70;99.90;;;5.96;100.00;96376.69;5032451;28;20499;-71
2023/02/25 09:59:53;;;;;;;7.65;2.15;;;6.90;99.90;;;5.78;100.00;96383.03;5032467;28;20430;-69
2023/02/25 10:02:31;;;;;;;5.82;1.92;;;6.90;99.90;;;5.75;100.00;96390.59;5032027;28;20407;-69
2023/02/25 10:05:22;;;;;;;5.68;1.77;;;6.80;99.90;;;5.75;100.00;96386.16;5032357;28;20761;-68
2023/02/25 10:08:00;;;;;;;3.13;1.80;;;6.80;99.90;;;5.60;100.00;96393.03;5032285;28;20891;-71
2023/02/25 10:10:36;;;;;;;5.20;1.92;;;6.70;99.90;;;5.66;100.00;96397.31;5032101;28;20438;-70
2023/02/25 10:13:17;;;;;;;3.80;1.90;;;6.60;99.90;;;5.70;100.00;96388.72;5031763;28;20466;-70
2023/02/25 10:15:56;;;;;;;6.88;1.90;;;6.70;99.90;;;5.51;100.00;96391.84;5030615;28;20411;-69
2023/02/25 10:18:45;;;;;;;6.25;2.15;;;6.60;99.90;;;5.57;100.00;96389.06;5033973;28;20399;-69
2023/02/25 10:21:22;;;;;;;3.40;1.73;;;6.60;99.90;;;5.56;100.00;96384.88;5038439;28;20416;-70